createdAt,value
2023-01-19T00:01:39.369Z,0.93
2023-01-19T00:04:08.944Z,0.93
2023-01-19T00:06:38.797Z,0.82
2023-01-19T00:09:08.599Z,0.76
2023-01-19T00:11:38.899Z,0.76
2023-01-19T00:14:08.469Z,0.73
2023-01-19T00:16:39.111Z,0.86
2023-01-19T00:19:09.882Z,0.81
2023-01-19T00:21:39.689Z,0.75
2023-01-19T00:24:09.242Z,0.65
2023-01-19T00:26:40.404Z,0.58
2023-01-19T00:29:12.409Z,0.58
2023-01-19T00:31:42.782Z,0.53
2023-01-19T00:34:12.278Z,0.58
2023-01-19T00:36:42.066Z,0.54
2023-01-19T00:39:11.543Z,0.74
2023-01-19T00:41:59.228Z,0.74
2023-01-19T00:44:29.028Z,0.78
2023-01-19T00:46:59.124Z,0.76
2023-01-19T00:49:28.955Z,0.75
2023-01-19T00:51:59.086Z,0.79
2023-01-19T00:54:28.847Z,0.80
2023-01-19T00:56:58.709Z,0.75
2023-01-19T00:59:28.868Z,0.67
2023-01-19T01:01:58.948Z,0.83
2023-01-19T01:04:28.749Z,0.86
2023-01-19T01:06:58.517Z,0.92
2023-01-19T01:09:28.345Z,0.84
2023-01-19T01:11:58.348Z,0.84
2023-01-19T01:14:29.750Z,0.76
2023-01-19T01:17:00.615Z,0.73
2023-01-19T01:19:30.424Z,0.91
2023-01-19T01:22:00.196Z,0.81
2023-01-19T01:24:29.936Z,0.86
2023-01-19T01:26:59.765Z,0.67
2023-01-19T01:29:29.520Z,0.89
2023-01-19T01:31:59.507Z,0.72
2023-01-19T01:34:29.519Z,0.75
2023-01-19T01:36:59.293Z,0.65
2023-01-19T01:39:29.101Z,0.73
2023-01-19T01:41:58.871Z,0.55
2023-01-19T01:44:52.481Z,0.73
2023-01-19T01:47:41.774Z,0.73
2023-01-19T01:50:19.790Z,0.79
2023-01-19T01:52:58.516Z,0.58
2023-01-19T01:55:32.067Z,0.48
2023-01-19T01:58:04.947Z,0.48
2023-01-19T02:00:36.430Z,0.50
2023-01-19T02:03:06.470Z,0.59
2023-01-19T02:05:36.940Z,0.54
2023-01-19T02:08:36.252Z,0.56
2023-01-19T02:11:24.768Z,0.71
2023-01-19T02:13:54.792Z,0.71
2023-01-19T02:16:24.716Z,0.62
2023-01-19T02:18:54.504Z,0.57
2023-01-19T02:21:27.027Z,0.58
2023-01-19T02:23:59.088Z,0.48
2023-01-19T02:26:37.712Z,0.54
2023-01-19T02:29:10.326Z,0.53
2023-01-19T02:31:41.939Z,0.53
2023-01-19T02:34:15.394Z,0.51
2023-01-19T02:37:06.820Z,0.57
2023-01-19T02:39:39.594Z,0.53
2023-01-19T02:42:12.106Z,0.50
2023-01-19T02:44:44.941Z,0.59
2023-01-19T02:47:14.953Z,0.68
2023-01-19T02:49:44.750Z,0.45
2023-01-19T02:52:17.335Z,0.68
2023-01-19T02:54:59.136Z,0.44
2023-01-19T02:57:44.089Z,0.57
2023-01-19T03:00:19.649Z,0.51
2023-01-19T03:03:19.687Z,0.51
2023-01-19T03:06:04.903Z,0.66
2023-01-19T03:08:43.826Z,0.56
2023-01-19T03:11:15.126Z,0.57
2023-01-19T03:13:56.702Z,0.48
2023-01-19T03:16:35.321Z,0.56
2023-01-19T03:19:20.473Z,0.38
2023-01-19T03:21:53.542Z,0.38
2023-01-19T03:24:25.776Z,0.52
2023-01-19T03:26:58.722Z,0.53
2023-01-19T03:29:31.888Z,0.54
2023-01-19T03:32:04.417Z,0.47
2023-01-19T03:34:36.928Z,0.60
2023-01-19T03:37:08.463Z,0.54
2023-01-19T03:39:38.496Z,0.61
2023-01-19T03:42:10.974Z,0.51
2023-01-19T03:44:43.159Z,0.43
2023-01-19T03:47:15.544Z,0.59
2023-01-19T03:49:48.151Z,0.54
2023-01-19T03:52:17.668Z,0.47
2023-01-19T03:54:48.219Z,0.49
2023-01-19T03:57:17.657Z,0.42
2023-01-19T03:59:48.006Z,0.47
2023-01-19T04:02:17.896Z,0.37
2023-01-19T04:04:47.754Z,0.57
2023-01-19T04:07:17.467Z,0.55
2023-01-19T04:09:47.348Z,0.42
2023-01-19T04:12:16.903Z,0.54
2023-01-19T04:14:47.561Z,0.51
2023-01-19T04:17:17.033Z,0.51
2023-01-19T04:19:46.869Z,0.58
2023-01-19T04:22:16.366Z,0.46
2023-01-19T04:24:46.163Z,0.63
2023-01-19T04:27:16.296Z,0.63
2023-01-19T04:29:45.957Z,0.43
2023-01-19T04:32:15.837Z,0.58
2023-01-19T04:34:45.672Z,0.46
2023-01-19T04:37:15.459Z,0.62
2023-01-19T04:39:45.239Z,0.55
2023-01-19T04:42:15.186Z,0.49
2023-01-19T04:44:44.946Z,0.32
2023-01-19T04:47:15.450Z,0.51
2023-01-19T04:49:45.181Z,0.37
2023-01-19T04:52:14.958Z,0.44
2023-01-19T04:54:44.681Z,0.50
2023-01-19T04:57:14.433Z,0.58
2023-01-19T04:59:44.168Z,0.68
2023-01-19T05:02:13.796Z,0.54
2023-01-19T05:04:43.900Z,0.68
2023-01-19T05:07:13.429Z,0.54
2023-01-19T05:09:43.257Z,0.53
2023-01-19T05:12:12.731Z,0.51
2023-01-19T05:14:43.243Z,0.59
2023-01-19T05:17:13.248Z,0.56
2023-01-19T05:19:43.131Z,0.43
2023-01-19T05:22:12.612Z,0.44
2023-01-19T05:24:42.518Z,0.58
2023-01-19T05:27:12.486Z,0.58
2023-01-19T05:29:42.283Z,0.43
2023-01-19T05:32:12.131Z,0.46
2023-01-19T05:34:41.920Z,0.50
2023-01-19T05:37:11.651Z,0.50
2023-01-19T05:39:41.514Z,0.56
2023-01-19T05:42:11.064Z,0.63
2023-01-19T05:44:40.797Z,0.59
2023-01-19T05:47:10.564Z,0.51
2023-01-19T05:49:40.305Z,0.51
2023-01-19T05:52:09.950Z,0.59
2023-01-19T05:54:40.362Z,0.52
2023-01-19T05:57:10.772Z,0.63
2023-01-19T05:59:40.261Z,0.51
2023-01-19T06:02:10.145Z,0.62
2023-01-19T06:04:39.855Z,0.52
2023-01-19T06:07:09.328Z,0.51
2023-01-19T06:09:39.082Z,0.72
2023-01-19T06:12:08.773Z,0.53
2023-01-19T06:14:38.584Z,0.55
2023-01-19T06:17:08.553Z,0.57
2023-01-19T06:19:38.259Z,0.61
2023-01-19T06:22:08.269Z,0.49
2023-01-19T06:24:38.059Z,0.46
2023-01-19T06:27:07.556Z,0.58
2023-01-19T06:29:37.370Z,0.58
2023-01-19T06:32:07.415Z,0.51
2023-01-19T06:34:38.409Z,0.53
2023-01-19T06:37:08.412Z,0.45
2023-01-19T06:39:39.850Z,0.63
2023-01-19T06:42:10.158Z,0.51
2023-01-19T06:44:41.929Z,0.54
2023-01-19T06:47:15.670Z,0.50
2023-01-19T06:49:43.808Z,0.45
2023-01-19T06:52:15.576Z,0.47
2023-01-19T06:54:46.491Z,0.50
2023-01-19T06:57:15.587Z,0.45
2023-01-19T06:59:45.018Z,0.39
2023-01-19T07:02:27.531Z,0.45
2023-01-19T07:04:47.592Z,0.38
2023-01-19T07:07:18.110Z,0.46
2023-01-19T07:09:48.121Z,0.49
2023-01-19T07:12:17.614Z,0.59
2023-01-19T07:14:48.972Z,0.38
2023-01-19T07:17:19.113Z,0.31
2023-01-19T07:19:48.929Z,0.48
2023-01-19T07:22:18.845Z,0.48
2023-01-19T07:24:48.638Z,0.32
2023-01-19T07:27:18.587Z,0.30
2023-01-19T07:29:48.522Z,0.25
2023-01-19T07:32:18.261Z,0.25
2023-01-19T07:34:48.008Z,0.23
2023-01-19T07:37:17.679Z,0.22
2023-01-19T07:39:47.603Z,0.25
2023-01-19T07:42:17.139Z,0.19
2023-01-19T07:44:46.866Z,0.35
2023-01-19T07:47:16.819Z,0.10
2023-01-19T07:49:46.547Z,0.02
2023-01-19T07:52:16.407Z,0.07
2023-01-19T07:54:46.217Z,0.17
2023-01-19T07:57:15.737Z,0.07
2023-01-19T07:59:45.480Z,0.01
2023-01-19T08:02:16.341Z,0.06
2023-01-19T08:04:50.793Z,0.11
2023-01-19T08:07:20.429Z,0.16
2023-01-19T08:09:50.159Z,-0.08
2023-01-19T08:12:19.658Z,0.03
2023-01-19T08:14:49.391Z,-0.10
2023-01-19T08:17:19.485Z,-0.19
2023-01-19T08:19:49.291Z,-0.09
2023-01-19T08:22:18.836Z,-0.18
2023-01-19T08:24:50.365Z,-0.14
2023-01-19T08:27:20.205Z,-0.11
2023-01-19T08:29:49.956Z,-0.28
2023-01-19T08:32:19.596Z,-0.30
2023-01-19T08:34:49.760Z,-0.27
2023-01-19T08:37:19.443Z,-0.24
2023-01-19T08:39:49.180Z,-0.24
2023-01-19T08:42:18.989Z,-0.28
2023-01-19T08:44:57.734Z,0.05
2023-01-19T08:47:20.282Z,-0.07
2023-01-19T08:49:50.384Z,0.04
2023-01-19T08:52:20.167Z,0.10
2023-01-19T08:54:49.909Z,0.20
2023-01-19T08:57:19.460Z,0.40
2023-01-19T08:59:49.257Z,0.55
2023-01-19T09:02:18.997Z,0.55
2023-01-19T09:04:48.946Z,0.75
2023-01-19T09:07:20.089Z,0.85
2023-01-19T09:09:49.857Z,0.84
2023-01-19T09:12:19.346Z,0.92
2023-01-19T09:14:49.110Z,1.04
2023-01-19T09:17:18.902Z,1.26
2023-01-19T09:19:48.688Z,1.23
2023-01-19T09:22:18.351Z,1.50
2023-01-19T09:24:48.135Z,1.44
2023-01-19T09:27:17.639Z,1.38
2023-01-19T09:29:49.059Z,1.52
2023-01-19T09:32:19.550Z,1.64
2023-01-19T09:34:49.118Z,1.67
2023-01-19T09:37:18.995Z,1.80
2023-01-19T09:39:48.921Z,1.72
2023-01-19T09:42:30.211Z,1.84
2023-01-19T09:45:01.354Z,1.96
2023-01-19T09:47:33.910Z,1.98
2023-01-19T09:50:06.787Z,2.17
2023-01-19T09:52:39.949Z,1.94
2023-01-19T09:55:18.377Z,2.15
2023-01-19T09:57:48.119Z,2.38
2023-01-19T10:00:19.343Z,2.38
2023-01-19T10:03:01.510Z,2.50
2023-01-19T10:05:34.559Z,2.74
2023-01-19T10:08:19.290Z,2.57
2023-01-19T10:10:52.120Z,2.85
2023-01-19T10:13:52.344Z,2.78
2023-01-19T10:16:43.519Z,2.82
2023-01-19T10:19:25.547Z,3.16
2023-01-19T10:21:58.300Z,3.17
2023-01-19T10:24:33.398Z,3.17
2023-01-19T10:27:03.647Z,3.01
2023-01-19T10:29:38.266Z,3.24
2023-01-19T10:32:18.301Z,3.25
2023-01-19T10:34:50.093Z,3.34
2023-01-19T10:37:29.654Z,3.35
2023-01-19T10:40:05.297Z,3.43
2023-01-19T10:42:35.189Z,3.39
2023-01-19T10:45:06.788Z,3.39
2023-01-19T10:47:39.906Z,3.74
2023-01-19T10:50:33.759Z,3.67
2023-01-19T10:53:08.350Z,3.52
2023-01-19T10:55:40.396Z,3.72
2023-01-19T10:58:28.463Z,3.71
2023-01-19T11:01:01.504Z,3.56
2023-01-19T11:03:32.993Z,3.44
2023-01-19T11:06:18.563Z,3.74
2023-01-19T11:08:52.852Z,3.64
2023-01-19T11:11:24.794Z,3.85
2023-01-19T11:14:06.928Z,3.88
2023-01-19T11:16:40.011Z,3.87
2023-01-19T11:19:13.581Z,4.28
2023-01-19T11:21:43.365Z,3.46
2023-01-19T11:24:16.518Z,4.35
2023-01-19T11:26:49.570Z,3.66
2023-01-19T11:29:24.659Z,3.79
2023-01-19T11:31:57.774Z,3.75
2023-01-19T11:34:39.192Z,4.01
2023-01-19T11:37:21.102Z,3.94
2023-01-19T11:39:53.636Z,3.88
2023-01-19T11:42:23.608Z,4.02
2023-01-19T11:44:59.241Z,4.07
2023-01-19T11:47:43.343Z,3.91
2023-01-19T11:50:27.919Z,3.91
2023-01-19T11:53:18.987Z,3.68
2023-01-19T11:56:04.723Z,3.72
2023-01-19T11:58:37.492Z,3.66
2023-01-19T12:01:21.053Z,3.74
2023-01-19T12:03:59.552Z,3.69
2023-01-19T12:06:32.656Z,3.45
2023-01-19T12:09:09.486Z,3.50
2023-01-19T12:11:54.222Z,3.47
2023-01-19T12:14:50.587Z,3.66
2023-01-19T12:17:28.903Z,3.63
2023-01-19T12:20:18.118Z,3.84
2023-01-19T12:22:53.714Z,3.65
2023-01-19T12:25:25.934Z,3.64
2023-01-19T12:27:56.251Z,3.77
2023-01-19T12:30:28.849Z,3.76
2023-01-19T12:33:24.034Z,3.60
2023-01-19T12:47:08.106Z,3.23
2023-01-19T12:49:43.792Z,3.41
2023-01-19T12:52:21.825Z,3.11
2023-01-19T12:55:00.385Z,3.04
2023-01-19T12:57:38.714Z,2.91
2023-01-19T13:00:26.586Z,2.91
2023-01-19T13:02:58.971Z,2.85
2023-01-19T13:05:44.043Z,2.77
2023-01-19T13:08:16.017Z,2.74
2023-01-19T13:11:06.688Z,2.67
2023-01-19T13:13:46.338Z,2.48
2023-01-19T13:16:25.027Z,2.66
2023-01-19T13:19:09.715Z,2.73
2023-01-19T13:21:45.455Z,2.57
2023-01-19T13:24:25.687Z,2.54
2023-01-19T13:26:59.257Z,2.59
2023-01-19T13:29:40.474Z,2.54
2023-01-19T13:32:17.534Z,2.51
2023-01-19T13:34:50.342Z,2.43
2023-01-19T13:37:23.089Z,2.48
2023-01-19T13:39:56.387Z,2.45
2023-01-19T13:42:38.322Z,2.45
2023-01-19T13:45:29.075Z,2.48
2023-01-19T13:48:01.267Z,2.45
2023-01-19T13:50:33.461Z,2.35
2023-01-19T13:53:05.314Z,2.34
2023-01-19T13:55:35.087Z,2.17
2023-01-19T13:58:07.704Z,2.24
2023-01-19T14:00:38.476Z,2.44
2023-01-19T14:03:21.623Z,2.38
2023-01-19T14:05:54.391Z,2.11
2023-01-19T14:08:25.814Z,2.18
2023-01-19T14:11:02.565Z,1.98
2023-01-19T14:13:38.648Z,2.01
2023-01-19T14:16:17.300Z,2.17
2023-01-19T14:18:47.167Z,1.88
2023-01-19T14:21:18.529Z,1.83
2023-01-19T14:23:51.029Z,1.71
2023-01-19T14:26:43.014Z,1.67
2023-01-19T14:29:26.910Z,1.56
2023-01-19T14:32:08.339Z,1.51
2023-01-19T14:34:41.609Z,1.48
2023-01-19T14:37:20.563Z,1.36
2023-01-19T14:39:53.379Z,1.30
2023-01-19T14:42:28.767Z,1.25
2023-01-19T14:45:01.732Z,1.17
2023-01-19T14:47:34.598Z,1.08
2023-01-19T14:50:25.705Z,0.97
2023-01-19T14:53:01.604Z,1.04
2023-01-19T14:55:48.847Z,0.97
2023-01-19T14:58:21.091Z,0.86
2023-01-19T15:00:53.676Z,0.98
2023-01-19T15:03:43.603Z,0.84
2023-01-19T15:06:03.540Z,0.57
2023-01-19T15:08:36.684Z,0.57
2023-01-19T15:11:31.044Z,0.30
2023-01-19T15:14:01.814Z,0.28
2023-01-19T15:16:34.731Z,0.32
2023-01-19T15:19:04.551Z,0.32
2023-01-19T15:21:34.421Z,0.11
2023-01-19T15:24:04.223Z,-0.11
2023-01-19T15:26:34.000Z,-0.34
2023-01-19T15:29:03.697Z,-0.41
2023-01-19T15:31:33.573Z,-0.65
2023-01-19T15:34:03.425Z,-0.87
2023-01-19T15:36:33.211Z,-1.09
2023-01-19T15:39:04.007Z,-1.21
2023-01-19T15:41:34.251Z,-1.33
2023-01-19T15:44:05.677Z,-1.29
2023-01-19T15:46:35.561Z,-1.02
2023-01-19T15:49:06.488Z,-1.45
2023-01-19T15:51:36.237Z,-1.67
2023-01-19T15:54:06.616Z,-1.80
2023-01-19T15:56:36.371Z,-1.90
2023-01-19T15:59:06.562Z,-2.01
2023-01-19T16:01:36.643Z,-2.07
2023-01-19T16:04:09.477Z,-2.00
2023-01-19T16:06:39.453Z,-2.09
2023-01-19T16:09:08.940Z,-2.11
2023-01-19T16:11:38.754Z,-2.01
2023-01-19T16:14:08.381Z,-2.27
2023-01-19T16:16:38.382Z,-2.19
2023-01-19T16:19:07.927Z,-2.35
2023-01-19T16:21:38.146Z,-2.34
2023-01-19T16:24:07.995Z,-2.34
2023-01-19T16:26:37.744Z,-1.93
2023-01-19T16:29:10.729Z,-1.93
2023-01-19T16:31:42.453Z,-2.41
2023-01-19T16:34:12.627Z,-2.41
2023-01-19T16:36:43.705Z,-2.54
2023-01-19T16:39:15.763Z,-2.63
2023-01-19T16:41:46.480Z,-2.67
2023-01-19T16:44:17.828Z,-2.68
2023-01-19T16:46:50.494Z,-2.76
2023-01-19T16:49:22.794Z,-2.68
2023-01-19T16:51:57.792Z,-2.80
2023-01-19T16:54:29.275Z,-2.61
2023-01-19T16:56:59.519Z,-2.57
2023-01-19T16:59:29.363Z,-2.64
2023-01-19T17:01:59.347Z,-2.74
2023-01-19T17:04:29.616Z,-2.93
2023-01-19T17:06:59.264Z,-2.99
2023-01-19T17:09:29.269Z,-3.04
2023-01-19T17:11:58.726Z,-3.08
2023-01-19T17:14:28.228Z,-3.18
2023-01-19T17:16:59.540Z,-3.39
2023-01-19T17:19:28.929Z,-3.36
2023-01-19T17:21:58.528Z,-3.30
2023-01-19T17:24:28.176Z,-3.30
2023-01-19T17:26:57.632Z,-3.29
2023-01-19T17:29:27.236Z,-3.30
2023-01-19T17:31:56.721Z,-3.31
2023-01-19T17:34:26.564Z,-3.39
2023-01-19T17:36:57.655Z,-3.55
2023-01-19T17:39:27.163Z,-3.63
2023-01-19T17:41:56.686Z,-3.61
2023-01-19T17:44:26.171Z,-3.58
2023-01-19T17:46:56.275Z,-3.56
2023-01-19T17:49:26.528Z,-3.54
2023-01-19T17:51:56.112Z,-3.64
2023-01-19T17:54:25.924Z,-3.65
2023-01-19T17:56:56.293Z,-3.67
2023-01-19T17:59:25.953Z,-3.65
2023-01-19T18:01:55.492Z,-3.39
2023-01-19T18:04:25.274Z,-3.13
2023-01-19T18:06:54.755Z,-3.58
2023-01-19T18:09:24.432Z,-3.71
2023-01-19T18:11:54.001Z,-3.76
2023-01-19T18:14:23.602Z,-3.91
2023-01-19T18:16:53.151Z,-4.00
2023-01-19T18:19:22.916Z,-4.07
2023-01-19T18:21:52.534Z,-4.10
2023-01-19T18:24:22.279Z,-4.06
2023-01-19T18:26:54.237Z,-4.06
2023-01-19T18:29:23.716Z,-4.06
2023-01-19T18:31:53.694Z,-4.08
2023-01-19T18:34:23.147Z,-4.09
2023-01-19T18:36:52.793Z,-4.11
2023-01-19T18:39:31.779Z,-4.13
2023-01-19T18:42:01.721Z,-4.15
2023-01-19T18:44:37.684Z,-4.07
2023-01-19T18:47:11.507Z,-4.04
2023-01-19T18:49:41.247Z,-4.04
2023-01-19T18:52:10.901Z,-3.91
2023-01-19T18:54:41.453Z,-4.04
2023-01-19T18:57:11.700Z,-4.08
2023-01-19T18:59:43.047Z,-3.88
2023-01-19T19:02:14.378Z,-3.98
2023-01-19T19:04:43.977Z,-4.03
2023-01-19T19:07:14.526Z,-4.13
2023-01-19T19:09:44.441Z,-3.98
2023-01-19T19:12:20.742Z,-3.98
2023-01-19T19:14:53.431Z,-4.15
2023-01-19T19:17:24.899Z,-4.39
2023-01-19T19:19:54.778Z,-4.24
2023-01-19T19:22:25.722Z,-3.86
2023-01-19T19:24:55.582Z,-3.69
2023-01-19T19:27:25.457Z,-3.75
2023-01-19T19:29:55.049Z,-4.09
2023-01-19T19:32:24.767Z,-3.92
2023-01-19T19:34:56.006Z,-3.93
2023-01-19T19:37:26.246Z,-4.24
2023-01-19T19:39:57.732Z,-4.32
2023-01-19T19:42:29.004Z,-4.35
2023-01-19T19:45:01.236Z,-4.72
2023-01-19T19:47:31.521Z,-4.75
2023-01-19T19:50:01.105Z,-4.72
2023-01-19T19:52:32.091Z,-4.62
2023-01-19T19:55:01.969Z,-4.59
2023-01-19T19:57:31.701Z,-4.59
2023-01-19T20:00:03.019Z,-4.87
2023-01-19T20:02:35.514Z,-4.84
2023-01-19T20:05:07.124Z,-4.87
2023-01-19T20:07:37.099Z,-4.61
2023-01-19T20:10:07.110Z,-4.67
2023-01-19T20:12:36.834Z,-4.58
2023-01-19T20:15:07.579Z,-4.58
2023-01-19T20:17:37.106Z,-4.57
2023-01-19T20:20:07.977Z,-4.61
2023-01-19T20:22:37.508Z,-4.60
2023-01-19T20:25:07.837Z,-4.43
2023-01-19T20:27:37.394Z,-4.55
2023-01-19T20:30:08.089Z,-4.51
2023-01-19T20:32:42.303Z,-4.52
2023-01-19T20:35:15.322Z,-4.52
2023-01-19T20:37:45.164Z,-4.49
2023-01-19T20:40:14.785Z,-4.57
2023-01-19T20:42:44.546Z,-4.55
2023-01-19T20:45:15.659Z,-4.53
2023-01-19T20:47:44.473Z,-4.54
2023-01-19T20:50:14.334Z,-4.56
2023-01-19T20:52:43.852Z,-4.53
2023-01-19T20:55:26.133Z,-4.46
2023-01-19T20:57:59.747Z,-4.47
2023-01-19T21:00:36.661Z,-4.53
2023-01-19T21:03:06.652Z,-4.67
2023-01-19T21:05:36.173Z,-4.73
2023-01-19T21:08:07.178Z,-4.66
2023-01-19T21:10:36.683Z,-4.70
2023-01-19T21:13:06.580Z,-4.68
2023-01-19T21:15:36.130Z,-4.71
2023-01-19T21:18:06.432Z,-4.83
2023-01-19T21:20:35.972Z,-4.72
2023-01-19T21:23:06.834Z,-4.74
2023-01-19T21:25:37.376Z,-4.74
2023-01-19T21:28:07.218Z,-4.67
2023-01-19T21:30:38.069Z,-4.66
2023-01-19T21:33:07.883Z,-4.65
2023-01-19T21:35:37.895Z,-4.43
2023-01-19T21:38:07.797Z,-4.48
2023-01-19T21:40:38.487Z,-4.62
2023-01-19T21:43:10.497Z,-4.60
2023-01-19T21:45:42.998Z,-4.60
2023-01-19T21:48:13.287Z,-4.57
2023-01-19T21:50:44.474Z,-4.56
2023-01-19T21:53:15.214Z,-4.55
2023-01-19T21:55:50.342Z,-4.54
2023-01-19T21:58:31.938Z,-4.35
2023-01-19T22:01:17.429Z,-4.26
2023-01-19T22:04:04.862Z,-4.27
2023-01-19T22:06:34.920Z,-4.29
2023-01-19T22:09:04.522Z,-4.35
2023-01-19T22:11:34.366Z,-4.42
2023-01-19T22:14:03.921Z,-4.42
2023-01-19T22:16:34.000Z,-4.37
2023-01-19T22:19:06.249Z,-4.33
2023-01-19T22:21:36.634Z,-4.33
2023-01-19T22:24:07.356Z,-4.48
2023-01-19T22:26:37.715Z,-4.40
2023-01-19T22:29:11.337Z,-4.39
2023-01-19T22:31:41.432Z,-4.41
2023-01-19T22:34:11.771Z,-4.54
2023-01-19T22:36:41.283Z,-4.54
2023-01-19T22:39:13.251Z,-4.47
2023-01-19T22:41:45.479Z,-4.43
2023-01-19T22:44:18.354Z,-4.38
2023-01-19T22:46:48.771Z,-4.38
2023-01-19T22:49:19.763Z,-4.43
2023-01-19T22:51:48.769Z,-4.49
2023-01-19T22:54:22.305Z,-4.57
2023-01-19T22:56:51.811Z,-4.57
2023-01-19T22:59:21.651Z,-4.57
2023-01-19T23:01:54.747Z,-4.47
2023-01-19T23:04:26.342Z,-4.38
2023-01-19T23:06:56.946Z,-4.40
2023-01-19T23:09:25.722Z,-4.30
2023-01-19T23:11:55.162Z,-4.27
2023-01-19T23:14:24.921Z,-4.25
2023-01-19T23:16:54.480Z,-4.22
2023-01-19T23:19:24.274Z,-4.21
2023-01-19T23:21:54.097Z,-4.18
2023-01-19T23:24:23.916Z,-4.28
2023-01-19T23:26:53.738Z,-4.28
2023-01-19T23:29:23.553Z,-4.40
2023-01-19T23:31:53.649Z,-4.29
2023-01-19T23:34:23.140Z,-4.30
2023-01-19T23:36:52.661Z,-4.28
2023-01-19T23:39:23.563Z,-4.18
2023-01-19T23:41:52.510Z,-4.29
2023-01-19T23:44:22.065Z,-4.18
2023-01-19T23:46:51.651Z,-4.21
2023-01-19T23:49:21.274Z,-4.24
2023-01-19T23:51:50.972Z,-4.22
2023-01-19T23:54:21.720Z,-4.13
2023-01-19T23:56:50.549Z,-4.18
2023-01-19T23:59:19.973Z,-4.21
